Terminal Aerodrome Forecast
Issued by NWS Cleveland, OH

Home | Current Version | Previous Version | Text Only | Print | Product List | Glossary Off
Versions: 1 2 3 4 5 6 7 8 9 10 11 12 13 14

000
FTUS41 KCLE 012331
TAFYNG
TAF
KYNG 012331Z 0200/0224 30008KT P6SM SCT070
     FM020100 23004KT P6SM SKC
     FM021400 23010KT P6SM SKC
     FM021800 29012G20KT P6SM SCT060=

USA.gov is the U.S. government's official web portal to all federal, state and local government web resources and services.